Time;durP1;ratioP1;P1;durP2;ratioP2;P2;SDS_P1;SDS_P2;PMS_P1;PMS_P2;Temp;Humidity;BMP_temperature;BMP_pressure;BME280_temperature;BME280_humidity;BME280_pressure;Samples;Min_cycle;Max_cycle;Signal;HPM_P1;HPM_P2
2021/12/31 00:00:10;;;;;;;2.65;1.45;;;;;;;7.27;100.00;93753.75;2091655;28;20029;-86
2021/12/31 00:01:17;;;;;;;2.90;1.40;;;;;;;7.28;100.00;93754.50;2107397;27;20032;-86
2021/12/31 00:02:35;;;;;;;5.32;1.60;;;;;;;7.24;100.00;93745.78;2098666;28;20028;-86
2021/12/31 00:03:36;;;;;;;2.97;1.48;;;;;;;7.22;100.00;93748.06;2095033;28;20029;-85
2021/12/31 00:04:42;;;;;;;1.80;1.55;;;;;;;7.25;100.00;93744.66;2112511;28;20066;-86
2021/12/31 00:05:44;;;;;;;2.08;1.60;;;;;;;7.19;100.00;93751.47;2121685;27;20384;-84
2021/12/31 00:06:45;;;;;;;2.03;1.50;;;;;;;7.22;100.00;93737.41;2106072;28;20028;-85
2021/12/31 00:07:46;;;;;;;1.70;1.60;;;;;;;7.31;100.00;93746.53;2090008;28;20396;-86
2021/12/31 00:08:47;;;;;;;6.07;1.80;;;;;;;7.25;100.00;93742.75;2089291;28;20029;-86
2021/12/31 00:09:48;;;;;;;2.83;1.50;;;;;;;7.25;100.00;93745.41;2105629;28;20028;-86
2021/12/31 00:10:54;;;;;;;2.22;1.35;;;;;;;7.23;100.00;93747.66;2109651;28;20051;-87
2021/12/31 00:11:55;;;;;;;1.88;0.98;;;;;;;7.23;100.00;93744.25;2106082;28;20064;-85
2021/12/31 00:12:56;;;;;;;4.15;1.00;;;;;;;7.21;100.00;93749.19;2089483;28;20724;-86
2021/12/31 00:13:57;;;;;;;4.22;1.10;;;;;;;7.21;100.00;93751.84;2088686;28;20016;-86
2021/12/31 00:14:58;;;;;;;3.50;1.45;;;;;;;7.23;100.00;93750.31;2080806;28;20068;-86
2021/12/31 00:15:59;;;;;;;2.20;1.20;;;;;;;7.26;100.00;93748.81;2098206;28;20016;-86
2021/12/31 00:17:01;;;;;;;2.60;1.20;;;;;;;7.21;100.00;93743.88;2102781;28;20031;-85
2021/12/31 00:18:02;;;;;;;4.93;0.98;;;;;;;7.19;100.00;93749.56;2106124;28;20020;-86
2021/12/31 00:19:03;;;;;;;0.98;0.88;;;;;;;7.16;100.00;93746.91;2105979;28;20031;-86
2021/12/31 00:20:12;;;;;;;6.88;1.13;;;;;;;7.16;100.00;93746.91;2105543;28;20031;-86
2021/12/31 00:21:13;;;;;;;1.70;0.90;;;;;;;7.18;100.00;93742.72;2095643;28;20115;-86
2021/12/31 00:23:35;;;;;;;1.10;1.00;;;;;;;7.12;100.00;93746.91;2076281;28;20068;-86
2021/12/31 00:24:36;;;;;;;1.30;1.20;;;;;;;7.19;100.00;93746.16;2084296;28;20641;-86
2021/12/31 00:25:40;;;;;;;1.60;1.30;;;;;;;7.21;100.00;93743.88;2091286;28;20105;-85
2021/12/31 00:26:41;;;;;;;2.75;1.30;;;;;;;7.16;100.00;93742.38;2087316;28;20025;-85
2021/12/31 00:27:43;;;;;;;1.85;1.50;;;;;;;7.14;100.00;93747.28;2080762;28;20049;-87
2021/12/31 00:28:48;;;;;;;2.70;1.50;;;;;;;7.13;100.00;93745.75;2089268;28;20052;-85
2021/12/31 00:29:48;;;;;;;1.55;1.20;;;;;;;7.23;100.00;93744.25;2105588;28;20430;-86
2021/12/31 00:30:55;;;;;;;1.42;1.17;;;;;;;7.18;100.00;93748.03;2101370;28;20035;-87
2021/12/31 00:31:59;;;;;;;4.00;1.30;;;;;;;7.14;100.00;93749.19;2082066;28;20025;-87
2021/12/31 00:33:01;;;;;;;5.20;1.77;;;;;;;7.07;100.00;93737.41;2089972;28;20119;-87
2021/12/31 00:34:02;;;;;;;2.83;1.60;;;;;;;7.02;100.00;93737.00;2084888;28;20156;-86
2021/12/31 00:35:05;;;;;;;3.22;1.40;;;;;;;6.99;100.00;93727.91;2081661;28;20486;-87
2021/12/31 00:36:06;;;;;;;2.65;1.50;;;;;;;6.99;100.00;93735.13;2082360;28;20111;-86
2021/12/31 00:37:07;;;;;;;5.05;1.35;;;;;;;6.97;100.00;93735.47;2089864;28;20086;-86
2021/12/31 00:38:08;;;;;;;4.60;1.48;;;;;;;6.96;100.00;93731.31;2081853;28;20021;-87
2021/12/31 00:39:09;;;;;;;2.22;1.20;;;;;;;6.90;100.00;93734.72;2090152;28;20021;-86
2021/12/31 00:40:14;;;;;;;2.17;1.30;;;;;;;6.88;100.00;93732.41;2111391;28;20466;-87
2021/12/31 00:41:17;;;;;;;5.68;1.80;;;;;;;6.86;100.00;93732.06;2091741;28;20567;-86
2021/12/31 00:42:19;;;;;;;5.55;1.73;;;;;;;6.82;100.00;93724.06;2098300;28;20025;-86
2021/12/31 00:43:47;;;;;;;3.22;1.40;;;;;;;6.74;100.00;93727.09;2098414;28;20025;-87
2021/12/31 00:44:49;;;;;;;1.38;1.00;;;;;;;6.65;100.00;93726.69;2105884;28;20031;-86
2021/12/31 00:45:51;;;;;;;9.15;1.58;;;;;;;6.60;100.00;93735.00;2094830;28;20031;-86
2021/12/31 00:46:52;;;;;;;1.77;1.42;;;;;;;6.57;100.00;93724.00;2082026;28;20597;-87
2021/12/31 00:47:54;;;;;;;6.10;1.38;;;;;;;6.61;100.00;93728.56;2081826;28;20029;-87
2021/12/31 00:48:57;;;;;;;2.65;1.35;;;;;;;6.51;100.00;93725.50;2090136;28;20021;-86
2021/12/31 00:49:59;;;;;;;2.30;1.30;;;;;;;6.50;100.00;93726.63;2090538;28;20466;-85
2021/12/31 00:51:00;;;;;;;2.67;1.10;;;;;;;6.43;100.00;93723.19;2106543;28;20527;-85
2021/12/31 00:52:02;;;;;;;2.40;1.27;;;;;;;6.39;100.00;93728.47;2098179;28;20036;-86
2021/12/31 00:53:04;;;;;;;23.27;1.55;;;;;;;6.26;100.00;93732.59;2098138;28;20027;-86
2021/12/31 00:54:05;;;;;;;2.72;1.38;;;;;;;6.28;100.00;93728.44;2090421;28;20033;-86
2021/12/31 00:55:07;;;;;;;19.55;1.88;;;;;;;6.24;100.00;93726.91;2090012;28;20046;-86
2021/12/31 00:56:08;;;;;;;1.17;1.00;;;;;;;6.22;100.00;93729.16;2090224;28;20037;-86
2021/12/31 00:57:10;;;;;;;1.27;1.20;;;;;;;6.11;100.00;93731.03;2087414;28;20029;-87
2021/12/31 00:58:11;;;;;;;1.70;1.00;;;;;;;6.08;100.00;93734.41;2090202;28;20389;-86
2021/12/31 00:59:12;;;;;;;1.30;1.00;;;;;;;5.98;100.00;93731.34;2099624;28;20031;-87
2021/12/31 01:00:15;;;;;;;1.60;1.00;;;;;;;6.00;100.00;93733.59;2100667;28;20119;-89
2021/12/31 01:01:22;;;;;;;1.10;1.00;;;;;;;5.99;100.00;93727.53;2100713;28;20081;-86
2021/12/31 01:02:29;;;;;;;2.63;1.05;;;;;;;5.97;100.00;93729.81;2093041;28;20383;-86
2021/12/31 01:03:31;;;;;;;6.80;0.85;;;;;;;5.84;100.00;93733.88;2093842;28;20052;-85
2021/12/31 01:04:37;;;;;;;1.20;0.88;;;;;;;5.87;100.00;93732.38;2092321;28;20109;-85
2021/12/31 01:05:38;;;;;;;1.10;1.00;;;;;;;5.90;100.00;93732.38;2096989;28;20028;-85
2021/12/31 01:06:38;;;;;;;2.67;0.80;;;;;;;5.89;100.00;93732.78;2087250;28;20063;-87
2021/12/31 01:07:41;;;;;;;2.33;0.70;;;;;;;5.89;100.00;93733.53;2093188;28;20020;-86
2021/12/31 01:08:42;;;;;;;2.05;0.93;;;;;;;5.91;100.00;93733.91;2097938;28;20020;-87
2021/12/31 01:09:43;;;;;;;1.30;1.00;;;;;;;5.88;100.00;93726.69;2097835;28;20028;-87
2021/12/31 01:10:44;;;;;;;2.60;0.98;;;;;;;5.89;100.00;93735.41;2103395;28;20028;-87
2021/12/31 01:11:47;;;;;;;3.17;1.60;;;;;;;5.89;100.00;93730.88;2097614;28;20044;-87
2021/12/31 01:12:50;;;;;;;1.90;0.75;;;;;;;5.87;100.00;93729.72;2098160;28;20017;-86
2021/12/31 01:14:01;;;;;;;5.47;1.23;;;;;;;5.85;100.00;93732.75;2098260;28;20044;-86
2021/12/31 01:15:11;;;;;;;2.92;1.00;;;;;;;5.86;100.00;93723.66;2109111;27;20493;-85
2021/12/31 01:16:12;;;;;;;6.45;1.00;;;;;;;5.87;100.00;93735.78;2104906;28;20020;-86
2021/12/31 01:17:15;;;;;;;2.58;0.90;;;;;;;5.75;100.00;93728.91;2100369;28;20082;-86
2021/12/31 01:18:22;;;;;;;2.40;1.02;;;;;;;5.81;100.00;93726.66;2106527;28;20565;-86
2021/12/31 01:20:29;;;;;;;6.07;1.30;;;;;;;5.70;100.00;93726.56;2107507;27;20046;-86
2021/12/31 01:21:33;;;;;;;7.07;0.90;;;;;;;5.72;100.00;93728.88;2113997;28;20062;-86
2021/12/31 01:22:38;;;;;;;7.07;1.05;;;;;;;5.69;100.00;93724.28;2098516;28;20830;-86
2021/12/31 01:23:48;;;;;;;9.10;1.25;;;;;;;5.69;100.00;93734.91;2091024;28;20469;-87
2021/12/31 01:25:05;;;;;;;26.30;1.80;;;;;;;5.54;100.00;93729.50;2106357;28;20024;-86
2021/12/31 01:26:20;;;;;;;17.40;1.15;;;;;;;5.57;100.00;93733.28;2097687;28;20025;-87
2021/12/31 01:27:27;;;;;;;14.15;1.02;;;;;;;5.61;100.00;93743.94;2092248;28;20024;-86
2021/12/31 01:28:32;;;;;;;22.25;1.00;;;;;;;5.56;100.00;93735.19;2098606;27;20020;-87
2021/12/31 01:29:36;;;;;;;5.25;0.73;;;;;;;5.55;100.00;93735.56;2111206;27;20438;-86
2021/12/31 01:30:37;;;;;;;39.58;1.20;;;;;;;5.47;100.00;93737.41;2106200;28;20051;-86
2021/12/31 01:31:41;;;;;;;41.10;1.25;;;;;;;5.33;100.00;93736.53;2106049;28;20020;-86
2021/12/31 01:32:46;;;;;;;18.60;0.70;;;;;;;5.36;100.00;93733.91;2104603;28;20150;-86
2021/12/31 01:33:47;;;;;;;6.43;0.80;;;;;;;5.33;100.00;93728.59;2098272;28;20036;-87
2021/12/31 01:34:48;;;;;;;15.23;0.70;;;;;;;5.34;100.00;93733.50;2089794;28;20670;-86
2021/12/31 01:35:49;;;;;;;55.67;1.42;;;;;;;5.14;100.00;93740.94;2106288;28;20032;-85
2021/12/31 01:36:52;;;;;;;8.45;0.68;;;;;;;5.27;100.00;93731.56;2106232;28;20162;-86
2021/12/31 01:37:57;;;;;;;11.45;0.60;;;;;;;5.14;100.00;93737.53;2098158;28;20023;-86
2021/12/31 01:39:02;;;;;;;2.22;0.55;;;;;;;5.16;100.00;93732.59;2107198;27;20026;-86
2021/12/31 01:40:05;;;;;;;0.40;0.40;;;;;;;5.09;100.00;93738.59;2115351;27;20020;-85
2021/12/31 01:41:06;;;;;;;9.82;0.47;;;;;;;5.10;100.00;93739.38;2114984;28;20027;-86
2021/12/31 01:42:10;;;;;;;0.93;0.50;;;;;;;5.06;100.00;93739.34;2123026;27;20030;-86
2021/12/31 01:43:12;;;;;;;0.57;0.47;;;;;;;5.01;100.00;93732.50;2114684;28;20110;-86
2021/12/31 01:44:13;;;;;;;0.70;0.70;;;;;;;5.02;100.00;93738.53;2095459;28;20449;-86
2021/12/31 01:45:18;;;;;;;0.85;0.70;;;;;;;4.93;100.00;93735.44;2095991;28;20107;-86
2021/12/31 01:46:19;;;;;;;4.57;0.57;;;;;;;4.92;100.00;93732.03;2095627;28;20027;-86
2021/12/31 01:47:22;;;;;;;0.50;0.50;;;;;;;4.92;100.00;93732.03;2097831;28;20024;-86
2021/12/31 01:48:26;;;;;;;7.20;0.70;;;;;;;4.82;100.00;93737.97;2090169;28;20533;-86
2021/12/31 01:49:33;;;;;;;1.33;0.50;;;;;;;4.74;100.00;93729.19;2090319;28;20025;-84
2021/12/31 01:50:35;;;;;;;0.70;0.60;;;;;;;4.77;100.00;93733.75;2098715;28;20489;-86
2021/12/31 01:51:38;;;;;;;4.97;0.57;;;;;;;4.83;100.00;93728.91;2090033;28;20052;-85
2021/12/31 01:52:41;;;;;;;0.77;0.77;;;;;;;4.79;100.00;93728.13;2098269;28;20059;-87
2021/12/31 01:53:47;;;;;;;2.35;0.63;;;;;;;4.82;100.00;93730.00;2106134;28;20766;-86
2021/12/31 01:54:51;;;;;;;1.48;0.80;;;;;;;4.77;100.00;93727.69;2107125;28;20016;-85
2021/12/31 01:55:56;;;;;;;5.32;0.70;;;;;;;4.92;100.00;93723.31;2114588;28;20019;-86
2021/12/31 01:57:01;;;;;;;1.30;0.50;;;;;;;4.82;100.00;93729.25;2114344;28;20031;-87
2021/12/31 01:58:05;;;;;;;1.08;0.80;;;;;;;4.79;100.00;93730.75;2105959;28;20042;-86
2021/12/31 01:59:07;;;;;;;0.60;0.60;;;;;;;4.74;100.00;93723.13;2090181;28;20554;-85
2021/12/31 02:00:14;;;;;;;1.60;0.95;;;;;;;4.70;100.00;93728.41;2098189;28;20115;-87
2021/12/31 02:01:15;;;;;;;2.85;0.70;;;;;;;4.66;100.00;93718.91;2100979;28;20028;-86
2021/12/31 02:02:17;;;;;;;3.72;0.73;;;;;;;4.82;100.00;93716.78;2114453;28;20043;-88
2021/12/31 02:03:19;;;;;;;0.93;0.90;;;;;;;4.84;100.00;93725.13;2106246;28;20039;-86
2021/12/31 02:04:20;;;;;;;1.58;0.80;;;;;;;4.82;100.00;93723.97;2098409;28;20029;-87
2021/12/31 02:05:22;;;;;;;1.27;0.80;;;;;;;4.80;100.00;93721.69;2105617;28;20522;-87
2021/12/31 02:06:33;;;;;;;3.83;0.80;;;;;;;4.76;100.00;93718.25;2098224;28;20028;-87
2021/12/31 02:07:36;;;;;;;0.77;0.77;;;;;;;4.68;100.00;93717.41;2086076;28;20029;-87
2021/12/31 02:09:55;;;;;;;;;;;;;;;4.75;100.00;93714.84;2148821;27;20105;-87
2021/12/31 02:11:01;;;;;;;1.98;0.90;;;;;;;4.72;100.00;93717.44;2139041;27;20359;-87
2021/12/31 02:12:02;;;;;;;1.10;0.82;;;;;;;4.75;100.00;93714.84;2122439;27;20031;-86
2021/12/31 02:13:04;;;;;;;1.45;0.90;;;;;;;4.80;100.00;93713.75;2121590;28;20033;-87
2021/12/31 02:14:07;;;;;;;1.17;0.88;;;;;;;4.76;100.00;93710.28;2113486;27;20016;-86
2021/12/31 02:15:08;;;;;;;3.83;0.98;;;;;;;4.93;100.00;93715.00;2121951;27;20064;-86
2021/12/31 02:16:09;;;;;;;2.30;1.00;;;;;;;4.93;100.00;93715.00;2121971;27;20094;-86
2021/12/31 02:17:11;;;;;;;1.27;1.00;;;;;;;4.90;100.00;93713.06;2130133;27;20034;-86
2021/12/31 02:18:12;;;;;;;1.40;0.90;;;;;;;4.87;100.00;93708.50;2121710;28;20028;-87
2021/12/31 02:19:15;;;;;;;2.63;0.93;;;;;;;4.79;100.00;93712.22;2121544;28;20106;-87
2021/12/31 02:20:18;;;;;;;1.80;0.85;;;;;;;4.64;100.00;93713.19;2113621;28;20028;-87
2021/12/31 02:21:21;;;;;;;2.47;0.90;;;;;;;4.59;100.00;93710.88;2112806;27;20027;-88
2021/12/31 02:22:28;;;;;;;2.05;1.00;;;;;;;4.58;100.00;93715.41;2113431;28;20024;-86
2021/12/31 02:23:42;;;;;;;2.17;0.93;;;;;;;4.60;100.00;93715.78;2114537;27;20051;-87
2021/12/31 02:24:44;;;;;;;2.22;0.80;;;;;;;4.57;100.00;93718.44;2118610;27;20028;-87
2021/12/31 02:25:48;;;;;;;1.50;0.80;;;;;;;4.52;100.00;93727.44;2113331;28;20020;-87
2021/12/31 02:27:01;;;;;;;2.08;0.90;;;;;;;4.52;100.00;93717.63;2105351;28;20428;-87
2021/12/31 02:28:02;;;;;;;1.73;0.80;;;;;;;4.47;100.00;93722.47;2113880;28;20555;-88
2021/12/31 02:29:03;;;;;;;2.05;1.00;;;;;;;4.41;100.00;93715.97;2112909;27;20027;-87
2021/12/31 02:30:06;;;;;;;30.65;1.30;;;;;;;4.51;100.00;93716.09;2113098;28;20046;-86
2021/12/31 02:31:07;;;;;;;0.77;0.77;;;;;;;4.37;100.00;93723.13;2105342;28;20071;-86
2021/12/31 02:32:08;;;;;;;0.70;0.70;;;;;;;4.34;100.00;93713.25;2112960;27;20518;-87
2021/12/31 02:33:10;;;;;;;3.20;0.77;;;;;;;4.33;100.00;93723.06;2130184;27;20109;-87
2021/12/31 02:34:11;;;;;;;0.85;0.80;;;;;;;4.32;100.00;93726.84;2121508;27;20030;-87
2021/12/31 02:35:12;;;;;;;0.60;0.60;;;;;;;4.29;100.00;93725.66;2112988;28;20027;-86
2021/12/31 02:36:13;;;;;;;0.70;0.70;;;;;;;4.25;100.00;93713.50;2113388;27;20027;-85
2021/12/31 02:37:14;;;;;;;0.82;0.80;;;;;;;4.26;100.00;93715.06;2121359;27;20020;-86
2021/12/31 02:38:16;;;;;;;1.75;0.77;;;;;;;4.22;100.00;93720.31;2113017;28;20024;-86
2021/12/31 02:39:17;;;;;;;1.63;0.77;;;;;;;4.22;100.00;93722.94;2121642;27;20023;-85
2021/12/31 02:40:19;;;;;;;0.90;0.90;;;;;;;4.23;100.00;93724.47;2121423;28;20110;-85
2021/12/31 02:41:20;;;;;;;1.77;0.77;;;;;;;4.20;100.00;93722.53;2122039;27;20020;-88
2021/12/31 02:42:21;;;;;;;1.30;0.70;;;;;;;4.16;100.00;93726.25;2129836;27;20027;-87
2021/12/31 02:43:22;;;;;;;0.73;0.70;;;;;;;4.02;100.00;93729.50;2121420;27;20047;-86
2021/12/31 02:44:24;;;;;;;0.70;0.60;;;;;;;4.06;100.00;93718.97;2113100;28;20028;-86
2021/12/31 02:45:30;;;;;;;7.40;0.80;;;;;;;4.06;100.00;93719.72;2113025;27;20023;-87
2021/12/31 02:46:31;;;;;;;12.50;0.77;;;;;;;3.89;100.00;93720.25;2122704;27;20023;-86
2021/12/31 02:47:34;;;;;;;0.60;0.60;;;;;;;3.89;100.00;93731.59;2121494;27;20019;-86
2021/12/31 02:48:35;;;;;;;0.60;0.60;;;;;;;3.95;100.00;93718.81;2121378;28;20085;-85
2021/12/31 02:49:40;;;;;;;0.93;0.70;;;;;;;3.84;100.00;93723.22;2121414;27;20019;-87
2021/12/31 02:50:42;;;;;;;0.50;0.50;;;;;;;3.86;100.00;93727.00;2121606;28;20019;-86
2021/12/31 02:51:43;;;;;;;1.13;0.70;;;;;;;3.87;100.00;93730.44;2121483;27;20062;-88
2021/12/31 02:52:46;;;;;;;0.65;0.65;;;;;;;3.91;100.00;93724.06;2121399;27;20027;-87
2021/12/31 02:53:52;;;;;;;2.38;0.70;;;;;;;3.87;100.00;93725.91;2113180;28;20100;-86
2021/12/31 02:54:56;;;;;;;0.52;0.52;;;;;;;3.84;100.00;93723.97;2113857;28;20023;-86
2021/12/31 02:56:17;;;;;;;1.70;0.60;;;;;;;3.80;100.00;93720.50;2104999;28;20037;-87
2021/12/31 02:57:23;;;;;;;0.80;0.70;;;;;;;3.80;100.00;93720.50;2124097;27;20019;-87
2021/12/31 02:58:30;;;;;;;4.90;0.57;;;;;;;3.74;100.00;93727.25;2113378;28;20023;-86
2021/12/31 02:59:37;;;;;;;3.30;0.60;;;;;;;3.70;100.00;93721.91;2106693;27;20036;-87
2021/12/31 03:00:42;;;;;;;1.98;0.55;;;;;;;3.71;100.00;93722.66;2122169;27;20023;-86
2021/12/31 03:01:44;;;;;;;0.50;0.50;;;;;;;3.72;100.00;93719.66;2114090;27;20024;-86
2021/12/31 03:02:50;;;;;;;1.00;0.80;;;;;;;3.78;100.00;93720.88;2108793;27;20069;-88
2021/12/31 03:03:59;;;;;;;3.03;0.95;;;;;;;3.84;100.00;93718.69;2122614;27;20076;-86
2021/12/31 03:05:09;;;;;;;13.13;1.20;;;;;;;4.01;100.00;93704.94;2129196;27;20026;-87
2021/12/31 03:06:18;;;;;;;42.50;2.30;;;;;;;4.04;100.00;93706.09;2120171;27;20039;-86
2021/12/31 03:07:27;;;;;;;5.30;1.40;;;;;;;4.06;100.00;93703.09;2121105;28;20026;-86
2021/12/31 03:08:30;;;;;;;42.80;1.92;;;;;;;4.11;100.00;93698.25;2122285;27;20106;-87
2021/12/31 03:09:46;;;;;;;65.22;2.47;;;;;;;4.11;100.00;93695.59;2112530;28;20047;-86
2021/12/31 03:10:57;;;;;;;85.25;2.47;;;;;;;4.15;100.00;93691.09;2100146;28;20824;-86
2021/12/31 03:12:04;;;;;;;128.88;3.95;;;;;;;4.25;100.00;93687.06;2098635;28;20029;-87
2021/12/31 03:13:11;;;;;;;77.90;2.38;;;;;;;4.27;100.00;93688.22;2105959;28;20122;-85
2021/12/31 03:14:17;;;;;;;30.90;1.75;;;;;;;4.44;100.00;93696.72;2122259;27;20015;-86
2021/12/31 03:15:22;;;;;;;75.65;2.15;;;;;;;4.37;100.00;93692.13;2112665;28;20456;-87
2021/12/31 03:16:23;;;;;;;52.05;2.03;;;;;;;4.30;100.00;93684.09;2105297;28;20024;-87
2021/12/31 03:17:24;;;;;;;53.60;1.92;;;;;;;4.32;100.00;93684.50;2112681;28;20400;-86
2021/12/31 03:18:26;;;;;;;101.35;3.42;;;;;;;4.23;100.00;93686.66;2104251;28;20118;-85
2021/12/31 03:19:27;;;;;;;2.95;0.98;;;;;;;4.28;100.00;93684.47;2104580;28;20016;-87
2021/12/31 03:20:40;;;;;;;124.25;3.10;;;;;;;4.33;100.00;93682.63;2112296;28;20546;-85
2021/12/31 03:21:42;;;;;;;33.92;1.90;;;;;;;4.32;100.00;93675.81;2117111;27;20665;-88
2021/12/31 03:22:44;;;;;;;28.48;1.48;;;;;;;4.34;100.00;93673.53;2107102;28;20500;-87
2021/12/31 03:23:44;;;;;;;40.17;1.48;;;;;;;4.34;100.00;93674.31;2098854;28;20024;-85
2021/12/31 03:24:46;;;;;;;44.88;1.45;;;;;;;4.36;100.00;93672.06;2107006;28;20463;-87
2021/12/31 03:25:46;;;;;;;48.42;1.60;;;;;;;4.29;100.00;93672.75;2115245;28;20476;-86
2021/12/31 03:26:47;;;;;;;5.60;1.73;;;;;;;4.35;100.00;93670.56;2121311;27;20022;-86
2021/12/31 03:27:48;;;;;;;35.67;1.48;;;;;;;4.29;100.00;93675.38;2117964;27;20030;-87
2021/12/31 03:28:49;;;;;;;26.02;1.17;;;;;;;4.32;100.00;93665.22;2098634;28;20028;-86
2021/12/31 03:29:56;;;;;;;12.48;1.05;;;;;;;4.43;100.00;93671.38;2106941;28;20020;-85
2021/12/31 03:31:03;;;;;;;57.25;1.63;;;;;;;4.29;100.00;93670.09;2107622;28;20051;-86
2021/12/31 03:32:05;;;;;;;12.93;0.90;;;;;;;4.33;100.00;93664.84;2101224;27;20020;-85
2021/12/31 03:33:06;;;;;;;10.88;1.25;;;;;;;4.32;100.00;93668.63;2115491;27;20523;-85
2021/12/31 03:34:07;;;;;;;25.10;1.25;;;;;;;4.34;100.00;93662.97;2115205;28;20016;-85
2021/12/31 03:35:08;;;;;;;24.90;1.50;;;;;;;4.50;100.00;93666.16;2115438;28;20078;-86
2021/12/31 03:36:09;;;;;;;34.35;1.42;;;;;;;4.33;100.00;93667.50;2101167;28;20080;-85
2021/12/31 03:37:10;;;;;;;9.75;1.00;;;;;;;4.34;100.00;93655.03;2115310;27;20439;-87
2021/12/31 03:38:12;;;;;;;15.80;1.17;;;;;;;4.33;100.00;93654.25;2106875;28;20035;-85
2021/12/31 03:39:15;;;;;;;32.53;1.48;;;;;;;4.23;100.00;93662.84;2115379;28;20345;-87
2021/12/31 03:40:16;;;;;;;18.98;0.85;;;;;;;4.27;100.00;93656.47;2115730;28;20480;-86
2021/12/31 03:41:17;;;;;;;11.05;0.90;;;;;;;4.37;100.00;93654.31;2106873;28;20020;-86
2021/12/31 03:42:18;;;;;;;12.75;1.13;;;;;;;4.16;100.00;93660.88;2098504;28;20024;-86
2021/12/31 03:43:19;;;;;;;17.10;1.00;;;;;;;4.14;100.00;93649.16;2106833;28;20458;-85
2021/12/31 03:44:20;;;;;;;8.77;1.00;;;;;;;4.10;100.00;93653.63;2098464;28;20194;-86
2021/12/31 03:45:23;;;;;;;9.38;0.73;;;;;;;4.07;100.00;93652.47;2098431;28;20066;-87
2021/12/31 03:46:27;;;;;;;12.23;0.90;;;;;;;4.01;100.00;93653.91;2107152;28;20028;-86
2021/12/31 03:47:28;;;;;;;13.13;0.90;;;;;;;4.06;100.00;93655.47;2107659;27;20036;-86
2021/12/31 03:48:29;;;;;;;7.18;1.05;;;;;;;4.11;100.00;93655.16;2115126;28;20564;-85
2021/12/31 03:49:30;;;;;;;12.40;0.95;;;;;;;4.08;100.00;93655.88;2115432;27;20104;-85
2021/12/31 03:50:31;;;;;;;20.80;1.10;;;;;;;4.00;100.00;93649.75;2115236;27;20020;-86
2021/12/31 03:51:33;;;;;;;5.65;1.05;;;;;;;3.98;100.00;93649.34;2110295;28;20376;-85
2021/12/31 03:52:38;;;;;;;13.23;0.73;;;;;;;3.96;100.00;93649.72;2115820;27;20057;-86
2021/12/31 03:53:39;;;;;;;16.17;1.00;;;;;;;4.00;100.00;93647.88;2115223;28;20058;-86
2021/12/31 03:54:40;;;;;;;22.05;1.40;;;;;;;3.92;100.00;93654.19;2098406;28;20105;-86
2021/12/31 03:55:42;;;;;;;94.63;2.47;;;;;;;3.79;100.00;93650.25;2090119;28;20024;-85
2021/12/31 03:56:43;;;;;;;20.55;1.02;;;;;;;3.96;100.00;93647.06;2090044;28;20563;-86
2021/12/31 03:57:44;;;;;;;23.90;1.00;;;;;;;3.98;100.00;93647.44;2103752;27;20019;-85
2021/12/31 03:58:45;;;;;;;45.28;1.80;;;;;;;3.89;100.00;93646.22;2106628;28;20028;-86
2021/12/31 03:59:46;;;;;;;47.95;1.58;;;;;;;3.88;100.00;93636.75;2098415;28;20021;-86
2021/12/31 04:00:47;;;;;;;41.55;1.50;;;;;;;3.96;100.00;93635.72;2098426;28;20048;-86
2021/12/31 04:01:48;;;;;;;56.65;1.65;;;;;;;3.90;100.00;93639.78;2106640;28;20089;-85
2021/12/31 04:02:49;;;;;;;124.03;2.83;;;;;;;3.85;100.00;93640.13;2129697;27;20019;-85
2021/12/31 04:03:49;;;;;;;124.43;2.83;;;;;;;3.67;100.00;93639.91;2115007;28;20023;-85
2021/12/31 04:04:50;;;;;;;32.67;1.15;;;;;;;3.73;100.00;93639.25;2106741;28;20020;-85
2021/12/31 04:05:51;;;;;;;20.20;1.13;;;;;;;3.85;100.00;93648.81;2106785;28;20028;-86
2021/12/31 04:06:53;;;;;;;12.50;1.05;;;;;;;3.88;100.00;93640.16;2115176;27;20023;-86
2021/12/31 04:07:53;;;;;;;32.00;1.63;;;;;;;3.84;100.00;93641.25;2123369;27;20051;-85
2021/12/31 04:08:54;;;;;;;12.88;0.70;;;;;;;3.88;100.00;93637.53;2115056;28;20468;-86
2021/12/31 04:09:55;;;;;;;43.10;1.23;;;;;;;3.96;100.00;93631.19;2114812;28;20044;-85
2021/12/31 04:10:56;;;;;;;4.57;0.55;;;;;;;3.91;100.00;93634.16;2123642;27;20015;-85
2021/12/31 04:12:00;;;;;;;22.02;1.15;;;;;;;3.83;100.00;93624.63;2123512;27;20050;-86
2021/12/31 04:13:01;;;;;;;8.15;0.77;;;;;;;3.87;100.00;93635.25;2114767;28;20110;-85
2021/12/31 04:14:02;;;;;;;12.60;1.00;;;;;;;3.81;100.00;93634.03;2107266;27;20027;-86
2021/12/31 04:15:03;;;;;;;7.22;1.00;;;;;;;3.82;100.00;93632.91;2118566;27;20027;-87
2021/12/31 04:16:04;;;;;;;3.45;0.80;;;;;;;3.85;100.00;93629.53;2107791;28;20564;-86
2021/12/31 04:17:05;;;;;;;0.70;0.70;;;;;;;3.89;100.00;93628.47;2115030;28;20035;-86
2021/12/31 04:18:06;;;;;;;6.32;0.82;;;;;;;3.88;100.00;93632.22;2113725;28;20080;-84
2021/12/31 04:19:07;;;;;;;1.23;0.70;;;;;;;4.02;100.00;93624.44;2106515;28;20102;-86
2021/12/31 04:20:19;;;;;;;2.67;1.02;;;;;;;4.09;100.00;93623.03;2115064;28;20050;-86
2021/12/31 04:21:39;;;;;;;6.03;0.80;;;;;;;4.11;100.00;93623.41;2108157;28;20078;-86
2021/12/31 04:22:50;;;;;;;6.97;0.80;;;;;;;4.19;100.00;93627.66;2103573;28;20020;-86
2021/12/31 04:24:04;;;;;;;9.65;0.70;;;;;;;4.40;100.00;93619.19;2108136;28;20699;-85
2021/12/31 04:25:05;;;;;;;5.80;0.80;;;;;;;4.41;100.00;93626.00;2101969;28;20081;-85
2021/12/31 04:26:06;;;;;;;2.47;0.70;;;;;;;4.46;100.00;93617.72;2106621;28;20020;-85
2021/12/31 04:27:07;;;;;;;5.82;0.80;;;;;;;4.49;100.00;93619.66;2106252;28;20089;-86
2021/12/31 04:28:09;;;;;;;1.13;0.70;;;;;;;4.54;100.00;93620.06;2106482;28;20366;-87
2021/12/31 04:29:10;;;;;;;10.48;0.80;;;;;;;4.54;100.00;93606.84;2099557;28;20420;-86
2021/12/31 04:30:11;;;;;;;2.10;0.55;;;;;;;4.60;100.00;93617.09;2097998;28;20107;-85
2021/12/31 04:31:12;;;;;;;2.38;0.73;;;;;;;4.62;100.00;93617.50;2098368;28;20032;-86
2021/12/31 04:32:16;;;;;;;3.42;0.75;;;;;;;4.63;100.00;93611.06;2106211;28;20020;-85
2021/12/31 04:33:17;;;;;;;2.13;0.75;;;;;;;4.76;100.00;93610.41;2123233;27;20023;-85
2021/12/31 04:34:18;;;;;;;9.32;0.88;;;;;;;4.93;100.00;93610.94;2114849;28;20023;-86
2021/12/31 04:35:19;;;;;;;3.42;0.80;;;;;;;4.93;100.00;93617.00;2098186;28;20513;-86
2021/12/31 04:36:20;;;;;;;3.28;0.70;;;;;;;4.88;100.00;93619.97;2098138;28;20039;-86
2021/12/31 04:37:27;;;;;;;0.52;0.52;;;;;;;4.98;100.00;93615.88;2098103;28;20465;-86
2021/12/31 04:38:34;;;;;;;6.55;1.40;;;;;;;4.94;100.00;93612.44;2099913;28;20473;-86
2021/12/31 04:39:35;;;;;;;5.18;0.70;;;;;;;4.99;100.00;93620.81;2107045;28;20046;-87
2021/12/31 04:40:36;;;;;;;4.47;0.70;;;;;;;4.97;100.00;93623.06;2106531;28;20098;-86
2021/12/31 04:41:36;;;;;;;2.78;1.52;;;;;;;5.00;100.00;93624.22;2106332;28;20047;-86
2021/12/31 04:42:43;;;;;;;10.27;1.17;;;;;;;4.99;100.00;93615.50;2098119;28;20443;-88
2021/12/31 04:43:44;;;;;;;3.92;1.00;;;;;;;5.02;100.00;93620.09;2101700;27;20024;-87
2021/12/31 04:44:45;;;;;;;4.82;0.85;;;;;;;5.02;100.00;93620.09;2106544;28;20874;-85
2021/12/31 04:45:45;;;;;;;11.48;0.80;;;;;;;5.12;100.00;93617.88;2104056;28;20047;-87
2021/12/31 04:46:46;;;;;;;8.23;0.68;;;;;;;5.07;100.00;93620.88;2097943;28;20021;-88
2021/12/31 04:47:47;;;;;;;10.38;0.70;;;;;;;5.09;100.00;93623.91;2106365;28;20047;-86
2021/12/31 04:48:48;;;;;;;2.70;0.55;;;;;;;5.12;100.00;93621.28;2106373;28;20109;-86
2021/12/31 04:49:49;;;;;;;1.20;0.70;;;;;;;5.18;100.00;93624.34;2113426;28;20019;-86
2021/12/31 04:50:50;;;;;;;0.63;0.57;;;;;;;5.13;100.00;93630.00;2106494;28;20437;-86
2021/12/31 04:51:51;;;;;;;1.60;0.60;;;;;;;5.12;100.00;93628.47;2114862;27;20480;-87
2021/12/31 04:52:52;;;;;;;0.90;0.90;;;;;;;5.18;100.00;93629.63;2114753;28;20110;-86
2021/12/31 04:53:53;;;;;;;6.88;0.60;;;;;;;5.16;100.00;93634.56;2114762;28;20023;-85
2021/12/31 04:54:54;;;;;;;2.25;0.80;;;;;;;5.13;100.00;93625.44;2123203;27;20076;-86
2021/12/31 04:55:55;;;;;;;6.88;0.73;;;;;;;5.13;100.00;93625.44;2114619;28;20026;-85
2021/12/31 04:56:58;;;;;;;0.95;0.63;;;;;;;5.11;100.00;93630.38;2123207;27;20043;-85
2021/12/31 04:57:59;;;;;;;1.58;0.52;;;;;;;5.05;100.00;93629.97;2116286;27;20028;-84
2021/12/31 04:59:00;;;;;;;3.58;0.55;;;;;;;5.05;100.00;93624.66;2106148;28;20046;-86
2021/12/31 05:00:01;;;;;;;0.85;0.50;;;;;;;5.14;100.00;93629.63;2106113;28;20488;-84